createdAt,value
2023-03-05T00:00:40.565Z,2.10
2023-03-05T00:03:07.261Z,1.97
2023-03-05T00:05:34.884Z,1.97
2023-03-05T00:08:01.572Z,1.70
2023-03-05T00:10:28.344Z,2.17
2023-03-05T00:12:55.062Z,1.97
2023-03-05T00:15:21.876Z,2.07
2023-03-05T00:17:48.538Z,2.50
2023-03-05T00:20:15.333Z,1.90
2023-03-05T00:22:42.010Z,1.93
2023-03-05T00:25:09.270Z,1.60
2023-03-05T00:27:35.931Z,2.30
2023-03-05T00:30:02.780Z,1.80
2023-03-05T00:32:29.526Z,1.87
2023-03-05T00:34:56.230Z,1.87
2023-03-05T00:37:22.898Z,1.93
2023-03-05T00:39:49.570Z,2.07
2023-03-05T00:42:16.259Z,2.53
2023-03-05T00:44:42.946Z,2.33
2023-03-05T00:47:09.613Z,2.57
2023-03-05T00:49:36.273Z,3.10
2023-03-05T00:52:02.937Z,2.50
2023-03-05T00:54:29.654Z,2.43
2023-03-05T00:56:56.289Z,2.90
2023-03-05T00:59:23.006Z,2.83
2023-03-05T01:01:49.700Z,2.70
2023-03-05T01:04:16.602Z,3.20
2023-03-05T01:06:44.854Z,2.90
2023-03-05T01:09:11.807Z,3.53
2023-03-05T01:11:38.556Z,2.53
2023-03-05T01:14:05.244Z,2.80
2023-03-05T01:16:32.010Z,2.83
2023-03-05T01:18:58.789Z,2.70
2023-03-05T01:21:25.722Z,2.97
2023-03-05T01:23:52.482Z,3.07
2023-03-05T01:26:19.306Z,2.53
2023-03-05T01:28:45.963Z,2.67
2023-03-05T01:31:13.034Z,2.50
2023-03-05T01:33:40.168Z,4.23
2023-03-05T01:36:13.465Z,3.20
2023-03-05T01:38:41.050Z,2.87
2023-03-05T01:41:08.849Z,2.40
2023-03-05T01:43:35.855Z,2.60
2023-03-05T01:46:21.236Z,2.60
2023-03-05T01:49:09.851Z,2.63
2023-03-05T01:52:01.515Z,2.10
2023-03-05T01:54:43.620Z,2.50
2023-03-05T01:57:16.670Z,2.27
2023-03-05T01:59:45.710Z,2.43
2023-03-05T02:02:13.346Z,2.90
2023-03-05T02:04:46.698Z,2.17
2023-03-05T02:07:15.715Z,2.20
2023-03-05T02:09:42.523Z,2.53
2023-03-05T02:12:11.558Z,3.10
2023-03-05T02:14:40.156Z,1.73
2023-03-05T02:17:08.143Z,2.37
2023-03-05T02:19:56.467Z,2.17
2023-03-05T02:22:24.403Z,2.30
2023-03-05T02:24:51.938Z,2.50
2023-03-05T02:27:22.702Z,2.93
2023-03-05T02:29:50.508Z,2.40
2023-03-05T02:32:17.158Z,2.60
2023-03-05T02:34:44.399Z,2.60
2023-03-05T02:37:11.222Z,2.60
2023-03-05T02:39:38.097Z,2.13
2023-03-05T02:42:04.874Z,2.63
2023-03-05T02:44:31.618Z,2.40
2023-03-05T02:46:58.323Z,2.30
2023-03-05T02:49:24.982Z,2.60
2023-03-05T02:51:51.704Z,2.90
2023-03-05T02:54:18.660Z,2.70
2023-03-05T02:56:45.396Z,2.60
2023-03-05T02:59:12.128Z,2.53
2023-03-05T03:01:38.845Z,2.80
2023-03-05T03:04:05.957Z,3.40
2023-03-05T03:06:32.673Z,3.07
2023-03-05T03:08:59.460Z,3.27
2023-03-05T03:11:26.249Z,3.20
2023-03-05T03:13:52.989Z,3.70
2023-03-05T03:16:19.868Z,3.73
2023-03-05T03:18:48.811Z,4.53
2023-03-05T03:21:25.304Z,3.23
2023-03-05T03:23:51.988Z,3.77
2023-03-05T03:26:18.984Z,4.23
2023-03-05T03:28:45.909Z,4.40
2023-03-05T03:31:12.655Z,4.33
2023-03-05T03:33:39.429Z,3.50
2023-03-05T03:36:07.205Z,3.40
2023-03-05T03:38:33.885Z,4.07
2023-03-05T03:41:00.548Z,4.17
2023-03-05T03:43:27.178Z,3.93
2023-03-05T03:45:53.832Z,4.40
2023-03-05T03:48:20.512Z,3.47
2023-03-05T03:50:47.233Z,4.20
2023-03-05T03:53:14.394Z,4.93
2023-03-05T03:55:46.555Z,4.27
2023-03-05T03:58:13.659Z,4.80
2023-03-05T04:00:41.538Z,4.27
2023-03-05T04:03:09.159Z,4.00
2023-03-05T04:05:35.864Z,3.93
2023-03-05T04:08:03.485Z,4.30
2023-03-05T04:10:30.217Z,4.93
2023-03-05T04:12:57.988Z,4.33
2023-03-05T04:15:25.032Z,4.07
2023-03-05T04:17:51.775Z,4.37
2023-03-05T04:20:18.600Z,5.13
2023-03-05T04:22:45.267Z,4.10
2023-03-05T04:25:11.977Z,3.70
2023-03-05T04:27:40.342Z,4.33
2023-03-05T04:30:08.890Z,5.30
2023-03-05T04:32:35.821Z,4.73
2023-03-05T04:35:02.710Z,4.23
2023-03-05T04:37:29.411Z,5.30
2023-03-05T04:39:56.057Z,3.97
2023-03-05T04:42:22.710Z,4.20
2023-03-05T04:44:50.203Z,4.23
2023-03-05T04:47:17.906Z,4.33
2023-03-05T04:49:45.170Z,4.20
2023-03-05T04:52:13.198Z,4.00
2023-03-05T04:54:39.942Z,4.37
2023-03-05T04:57:06.730Z,4.83
2023-03-05T04:59:33.563Z,5.53
2023-03-05T05:02:00.333Z,4.67
2023-03-05T05:04:27.111Z,5.13
2023-03-05T05:06:58.824Z,4.57
2023-03-05T05:09:26.110Z,4.93
2023-03-05T05:11:52.857Z,4.53
2023-03-05T05:14:19.663Z,3.90
2023-03-05T05:16:46.421Z,4.20
2023-03-05T05:19:13.136Z,4.63
2023-03-05T05:21:40.127Z,4.90
2023-03-05T05:24:07.058Z,4.70
2023-03-05T05:26:33.848Z,5.40
2023-03-05T05:29:00.529Z,4.97
2023-03-05T05:31:27.235Z,4.80
2023-03-05T05:33:53.924Z,4.43
2023-03-05T05:36:22.335Z,6.03
2023-03-05T05:38:49.081Z,5.23
2023-03-05T05:41:18.177Z,4.77
2023-03-05T05:43:45.173Z,5.07
2023-03-05T05:46:18.246Z,4.70
2023-03-05T05:48:45.985Z,5.90
2023-03-05T05:51:15.273Z,6.70
2023-03-05T05:53:43.013Z,7.50
2023-03-05T05:56:11.141Z,6.70
2023-03-05T05:58:39.055Z,7.13
2023-03-05T06:01:33.415Z,6.80
2023-03-05T06:04:01.013Z,7.13
2023-03-05T06:06:28.829Z,6.80
2023-03-05T06:08:56.181Z,7.03
2023-03-05T06:11:23.309Z,6.90
2023-03-05T06:13:50.506Z,6.50
2023-03-05T06:16:19.915Z,6.83
2023-03-05T06:18:46.853Z,7.57
2023-03-05T06:21:16.257Z,6.50
2023-03-05T06:23:43.571Z,7.33
2023-03-05T06:26:13.363Z,7.13
2023-03-05T06:28:40.245Z,7.13
2023-03-05T06:31:12.645Z,8.80
2023-03-05T06:33:39.976Z,9.00
2023-03-05T06:36:09.015Z,10.00
2023-03-05T06:38:36.227Z,9.17
2023-03-05T06:41:06.018Z,7.63
2023-03-05T06:43:33.556Z,6.10
2023-03-05T06:46:05.329Z,5.33
2023-03-05T06:48:32.306Z,4.97
2023-03-05T06:50:59.149Z,5.10
2023-03-05T06:53:26.413Z,4.87
2023-03-05T06:55:53.761Z,5.30
2023-03-05T06:58:20.979Z,5.00
2023-03-05T07:00:48.041Z,5.43
2023-03-05T07:03:14.959Z,5.17
2023-03-05T07:05:43.337Z,5.87
2023-03-05T07:08:10.053Z,6.03
2023-03-05T07:10:39.551Z,5.90
2023-03-05T07:13:06.700Z,6.17
2023-03-05T07:15:33.572Z,6.93
2023-03-05T07:18:00.375Z,7.20
2023-03-05T07:20:27.115Z,7.40
2023-03-05T07:22:53.784Z,7.63
2023-03-05T07:25:21.612Z,8.23
2023-03-05T07:27:48.637Z,7.80
2023-03-05T07:30:15.549Z,8.63
2023-03-05T07:32:42.462Z,9.60
2023-03-05T07:35:09.648Z,9.40
2023-03-05T07:37:36.512Z,8.83
2023-03-05T07:40:04.642Z,9.07
2023-03-05T07:42:31.410Z,11.47
2023-03-05T07:44:58.917Z,22.30
2023-03-05T07:47:25.727Z,9.93
2023-03-05T07:49:52.375Z,10.63
2023-03-05T07:52:19.165Z,8.60
2023-03-05T07:54:46.034Z,9.23
2023-03-05T07:57:13.463Z,9.43
2023-03-05T07:59:40.439Z,9.57
2023-03-05T08:02:08.014Z,8.00
2023-03-05T08:04:34.729Z,7.87
2023-03-05T08:07:01.423Z,7.20
2023-03-05T08:09:28.901Z,8.20
2023-03-05T08:11:55.624Z,9.37
2023-03-05T08:14:22.394Z,10.97
2023-03-05T08:16:52.216Z,7.80
2023-03-05T08:19:20.401Z,6.50
2023-03-05T08:21:47.107Z,6.87
2023-03-05T08:24:14.304Z,6.53
2023-03-05T08:26:41.559Z,4.60
2023-03-05T08:29:09.749Z,6.60
2023-03-05T08:31:37.412Z,10.13
2023-03-05T08:34:04.985Z,8.30
2023-03-05T08:36:32.065Z,11.43
2023-03-05T08:38:59.769Z,8.90
2023-03-05T08:41:26.580Z,12.57
2023-03-05T08:43:53.531Z,8.00
2023-03-05T08:46:20.404Z,5.17
2023-03-05T08:48:47.207Z,6.07
2023-03-05T08:51:16.284Z,6.33
2023-03-05T08:53:44.424Z,6.40
2023-03-05T08:56:11.989Z,6.53
2023-03-05T08:58:38.850Z,5.17
2023-03-05T09:01:05.906Z,5.27
2023-03-05T09:03:33.035Z,4.57
2023-03-05T09:06:01.756Z,3.37
2023-03-05T09:08:29.531Z,3.67
2023-03-05T09:10:56.811Z,4.33
2023-03-05T09:13:23.528Z,4.23
2023-03-05T09:15:57.916Z,3.13
2023-03-05T09:18:24.750Z,6.50
2023-03-05T09:20:51.518Z,8.10
2023-03-05T09:23:18.393Z,3.40
2023-03-05T09:25:45.194Z,4.53
2023-03-05T09:28:12.010Z,2.77
2023-03-05T09:30:38.863Z,3.83
2023-03-05T09:33:05.770Z,2.40
2023-03-05T09:35:36.004Z,2.03
2023-03-05T09:38:03.642Z,3.33
2023-03-05T09:40:55.774Z,3.80
2023-03-05T09:44:00.565Z,2.30
2023-03-05T09:46:48.755Z,4.17
2023-03-05T09:49:18.659Z,2.60
2023-03-05T09:51:48.296Z,2.77
2023-03-05T09:54:23.170Z,1.73
2023-03-05T09:56:56.620Z,3.70
2023-03-05T09:59:35.942Z,11.93
2023-03-05T10:02:19.515Z,28.10
2023-03-05T10:05:09.190Z,24.60
2023-03-05T10:07:39.945Z,2.30
2023-03-05T10:10:23.143Z,1.57
2023-03-05T10:12:53.783Z,1.70
2023-03-05T10:15:23.856Z,3.97
2023-03-05T10:18:05.906Z,1.80
2023-03-05T10:20:57.815Z,1.63
2023-03-05T10:23:53.798Z,3.00
2023-03-05T10:27:02.658Z,2.13
2023-03-05T10:29:46.841Z,3.63
2023-03-05T10:32:34.988Z,2.47
2023-03-05T10:35:17.030Z,5.80
2023-03-05T10:38:17.464Z,7.57
2023-03-05T10:40:52.254Z,2.33
2023-03-05T10:43:24.445Z,1.13
2023-03-05T10:45:54.284Z,1.40
2023-03-05T10:48:23.738Z,1.40
2023-03-05T10:51:19.863Z,0.90
2023-03-05T10:53:59.883Z,1.10
2023-03-05T10:56:28.652Z,1.40
2023-03-05T10:58:55.458Z,0.90
2023-03-05T11:01:26.075Z,1.33
2023-03-05T11:03:58.747Z,0.70
2023-03-05T11:06:41.639Z,0.80
2023-03-05T11:09:32.360Z,1.10
2023-03-05T11:12:08.709Z,0.80
2023-03-05T11:14:38.662Z,1.00
2023-03-05T11:17:49.005Z,5.67
2023-03-05T11:20:27.917Z,1.30
2023-03-05T11:23:13.630Z,3.63
2023-03-05T11:25:52.708Z,4.70
2023-03-05T11:28:32.374Z,1.20
2023-03-05T11:31:18.336Z,2.27
2023-03-05T11:33:59.460Z,1.00
2023-03-05T11:36:42.864Z,1.63
2023-03-05T11:39:15.376Z,1.07
2023-03-05T11:41:48.416Z,2.30
2023-03-05T11:44:33.403Z,2.23
2023-03-05T11:47:13.875Z,2.40
2023-03-05T11:49:44.904Z,1.03
2023-03-05T11:52:20.558Z,1.87
2023-03-05T11:54:47.981Z,2.67
2023-03-05T11:57:16.888Z,0.80
2023-03-05T11:59:44.435Z,2.50
2023-03-05T12:02:37.255Z,20.37
2023-03-05T12:05:07.205Z,2.57
2023-03-05T12:07:43.246Z,1.90
2023-03-05T12:10:23.160Z,1.23
2023-03-05T12:13:20.296Z,1.37
2023-03-05T12:16:14.607Z,1.30
2023-03-05T12:19:09.005Z,1.10
2023-03-05T12:21:41.570Z,1.70
2023-03-05T12:24:25.497Z,1.33
2023-03-05T12:26:56.060Z,1.80
2023-03-05T12:29:47.713Z,1.60
2023-03-05T12:32:28.797Z,1.57
2023-03-05T12:35:30.998Z,2.40
2023-03-05T12:38:00.926Z,2.30
2023-03-05T12:40:34.233Z,2.37
2023-03-05T12:43:03.406Z,2.60
2023-03-05T12:45:41.808Z,2.60
2023-03-05T12:48:12.656Z,3.63
2023-03-05T12:50:39.319Z,3.40
2023-03-05T12:53:18.335Z,2.70
2023-03-05T12:55:47.663Z,2.70
2023-03-05T12:58:42.179Z,2.00
2023-03-05T13:01:11.938Z,2.30
2023-03-05T13:03:56.540Z,3.03
2023-03-05T13:06:34.133Z,2.10
2023-03-05T13:09:24.914Z,2.00
2023-03-05T13:11:53.878Z,1.93
2023-03-05T13:14:46.592Z,2.77
2023-03-05T13:17:33.663Z,2.47
2023-03-05T13:20:02.148Z,1.97
2023-03-05T13:22:28.988Z,1.67
2023-03-05T13:25:16.503Z,1.90
2023-03-05T13:27:43.559Z,2.30
2023-03-05T13:30:28.215Z,1.50
2023-03-05T13:33:03.311Z,1.30
2023-03-05T13:35:31.983Z,1.77
2023-03-05T13:37:59.107Z,1.00
2023-03-05T13:40:29.455Z,1.40
2023-03-05T13:43:08.733Z,1.37
2023-03-05T13:45:35.572Z,1.30
2023-03-05T13:48:06.822Z,1.17
2023-03-05T13:50:35.953Z,2.00
2023-03-05T13:53:22.341Z,1.30
2023-03-05T13:55:50.987Z,1.10
2023-03-05T13:58:53.488Z,1.20
2023-03-05T14:01:30.488Z,1.60
2023-03-05T14:04:03.228Z,5.23
2023-03-05T14:06:31.010Z,10.10
2023-03-05T14:09:09.027Z,4.00
2023-03-05T14:11:36.084Z,4.23
2023-03-05T14:14:15.614Z,1.63
2023-03-05T14:16:42.367Z,1.20
2023-03-05T14:19:38.565Z,1.47
2023-03-05T14:22:06.641Z,1.10
2023-03-05T14:24:34.043Z,1.30
2023-03-05T14:27:07.732Z,1.10
2023-03-05T14:29:35.840Z,1.33
2023-03-05T14:32:18.826Z,1.10
2023-03-05T14:34:52.786Z,1.20
2023-03-05T14:37:27.265Z,1.20
2023-03-05T14:40:16.180Z,1.07
2023-03-05T14:43:06.704Z,1.00
2023-03-05T14:45:43.722Z,1.10
2023-03-05T14:48:13.675Z,0.80
2023-03-05T14:50:56.474Z,1.40
2023-03-05T14:53:27.289Z,0.90
2023-03-05T14:55:56.804Z,1.00
2023-03-05T14:58:26.134Z,1.10
2023-03-05T15:00:53.815Z,1.30
2023-03-05T15:03:21.868Z,1.10
2023-03-05T15:05:55.100Z,1.00
2023-03-05T15:08:25.043Z,1.20
2023-03-05T15:10:52.741Z,0.93
2023-03-05T15:13:20.192Z,1.10
2023-03-05T15:15:48.513Z,1.07
2023-03-05T15:18:17.647Z,1.20
2023-03-05T15:20:45.947Z,1.20
2023-03-05T15:23:12.991Z,1.10
2023-03-05T15:25:40.053Z,1.10
2023-03-05T15:28:07.078Z,1.10
2023-03-05T15:30:36.800Z,1.33
2023-03-05T15:33:06.804Z,3.00
2023-03-05T15:35:33.785Z,1.40
2023-03-05T15:38:00.611Z,1.40
2023-03-05T15:40:28.418Z,1.17
2023-03-05T15:42:59.183Z,1.17
2023-03-05T15:45:26.409Z,1.00
2023-03-05T15:47:53.733Z,1.10
2023-03-05T15:50:22.145Z,1.33
2023-03-05T15:52:49.574Z,1.17
2023-03-05T15:55:18.253Z,0.97
2023-03-05T15:57:47.539Z,1.10
2023-03-05T16:00:16.270Z,0.80
2023-03-05T16:02:42.912Z,1.10
2023-03-05T16:05:10.022Z,1.00
2023-03-05T16:07:40.734Z,1.00
2023-03-05T16:10:11.566Z,0.90
2023-03-05T16:12:41.011Z,1.20
2023-03-05T16:15:13.437Z,0.90
2023-03-05T16:17:42.205Z,0.97
2023-03-05T16:20:11.440Z,1.10
2023-03-05T16:22:38.545Z,1.13
2023-03-05T16:25:05.725Z,1.20
2023-03-05T16:27:32.534Z,1.53
2023-03-05T16:29:59.213Z,1.10
2023-03-05T16:32:25.972Z,1.10
2023-03-05T16:34:52.710Z,1.20
2023-03-05T16:37:21.834Z,1.20
2023-03-05T16:39:48.830Z,1.30
2023-03-05T16:42:16.613Z,1.40
2023-03-05T16:44:43.932Z,3.30
2023-03-05T16:47:15.010Z,15.77
2023-03-05T16:49:41.714Z,8.87
2023-03-05T16:52:18.878Z,4.87
2023-03-05T16:54:46.953Z,19.17
2023-03-05T16:57:13.903Z,9.33
2023-03-05T16:59:40.959Z,3.90
2023-03-05T17:02:08.075Z,2.97
2023-03-05T17:04:35.184Z,2.30
2023-03-05T17:07:04.077Z,3.23
2023-03-05T17:09:31.049Z,4.70
2023-03-05T17:11:58.041Z,4.40
2023-03-05T17:14:24.754Z,3.97
2023-03-05T17:16:51.499Z,4.67
2023-03-05T17:19:18.519Z,3.10
2023-03-05T17:21:45.534Z,3.70
2023-03-05T17:24:12.220Z,2.43
2023-03-05T17:26:38.938Z,3.70
2023-03-05T17:29:06.501Z,3.10
2023-03-05T17:31:33.781Z,2.73
2023-03-05T17:34:00.527Z,3.23
2023-03-05T17:36:27.308Z,2.60
2023-03-05T17:38:54.465Z,2.10
2023-03-05T17:41:21.952Z,2.90
2023-03-05T17:43:49.078Z,2.90
2023-03-05T17:46:16.981Z,2.50
2023-03-05T17:48:44.174Z,2.30
2023-03-05T17:51:13.588Z,2.40
2023-03-05T17:53:40.982Z,3.33
2023-03-05T17:56:12.248Z,1.93
2023-03-05T17:58:39.444Z,2.60
2023-03-05T18:01:07.406Z,2.53
2023-03-05T18:03:34.527Z,3.37
2023-03-05T18:06:01.274Z,4.63
2023-03-05T18:08:28.101Z,3.20
2023-03-05T18:10:55.308Z,2.23
2023-03-05T18:13:22.019Z,3.50
2023-03-05T18:15:48.784Z,2.77
2023-03-05T18:18:16.682Z,4.40
2023-03-05T18:20:43.766Z,1.90
2023-03-05T18:23:11.341Z,1.67
2023-03-05T18:25:38.100Z,1.73
2023-03-05T18:28:10.725Z,1.60
2023-03-05T18:30:38.709Z,1.80
2023-03-05T18:33:05.456Z,1.87
2023-03-05T18:35:33.540Z,2.17
2023-03-05T18:38:00.608Z,2.00
2023-03-05T18:40:29.890Z,2.60
2023-03-05T18:43:00.093Z,3.27
2023-03-05T18:45:27.107Z,4.20
2023-03-05T18:47:54.383Z,4.63
2023-03-05T18:50:22.423Z,3.57
2023-03-05T18:52:49.382Z,3.43
2023-03-05T18:55:22.248Z,2.43
2023-03-05T18:57:49.271Z,2.50
2023-03-05T19:00:22.058Z,2.87
2023-03-05T19:02:49.321Z,3.73
2023-03-05T19:05:17.448Z,3.20
2023-03-05T19:07:44.465Z,3.37
2023-03-05T19:10:13.668Z,2.40
2023-03-05T19:12:55.221Z,2.27
2023-03-05T19:15:22.154Z,2.73
2023-03-05T19:17:49.534Z,2.20
2023-03-05T19:20:17.401Z,1.80
2023-03-05T19:22:44.185Z,1.67
2023-03-05T19:25:11.539Z,2.17
2023-03-05T19:27:38.913Z,2.10
2023-03-05T19:30:06.898Z,2.50
2023-03-05T19:32:34.124Z,3.60
2023-03-05T19:35:00.966Z,1.97
2023-03-05T19:37:27.821Z,2.20
2023-03-05T19:39:54.652Z,2.37
2023-03-05T19:42:21.492Z,1.97
2023-03-05T19:44:48.167Z,3.00
2023-03-05T19:47:15.082Z,7.20
2023-03-05T19:49:41.803Z,6.67
2023-03-05T19:52:08.720Z,5.37
2023-03-05T19:54:35.776Z,5.30
2023-03-05T19:57:02.518Z,9.13
2023-03-05T19:59:29.348Z,6.80
2023-03-05T20:01:57.363Z,6.43
2023-03-05T20:04:25.083Z,5.40
2023-03-05T20:06:51.835Z,5.30
2023-03-05T20:09:18.538Z,6.03
2023-03-05T20:11:46.215Z,5.60
2023-03-05T20:14:14.522Z,5.97
2023-03-05T20:16:42.962Z,6.50
2023-03-05T20:19:16.194Z,8.60
2023-03-05T20:21:44.036Z,9.40
2023-03-05T20:24:14.055Z,10.23
2023-03-05T20:26:42.061Z,9.47
2023-03-05T20:29:09.343Z,9.87
2023-03-05T20:31:37.254Z,10.10
2023-03-05T20:34:06.009Z,9.87
2023-03-05T20:36:34.590Z,9.87
2023-03-05T20:39:03.321Z,12.10
2023-03-05T20:41:31.211Z,10.57
2023-03-05T20:43:58.025Z,9.70
2023-03-05T20:46:30.401Z,9.27
2023-03-05T20:49:00.010Z,9.03
2023-03-05T20:51:34.973Z,9.63
2023-03-05T20:54:08.315Z,9.80
2023-03-05T20:56:36.281Z,9.23
2023-03-05T20:59:06.268Z,9.23
2023-03-05T21:01:35.763Z,9.07
2023-03-05T21:04:02.863Z,9.57
2023-03-05T21:06:31.860Z,8.47
2023-03-05T21:08:59.487Z,8.93
2023-03-05T21:11:26.662Z,9.13
2023-03-05T21:13:53.532Z,8.50
2023-03-05T21:16:23.446Z,7.40
2023-03-05T21:18:52.290Z,6.97
2023-03-05T21:21:19.491Z,7.13
2023-03-05T21:23:47.187Z,5.97
2023-03-05T21:26:14.180Z,5.93
2023-03-05T21:28:41.298Z,5.60
2023-03-05T21:31:10.723Z,6.27
2023-03-05T21:33:37.842Z,5.67
2023-03-05T21:36:05.178Z,5.80
2023-03-05T21:38:34.042Z,5.00
2023-03-05T21:41:02.076Z,5.30
2023-03-05T21:43:29.322Z,5.23
2023-03-05T21:45:57.231Z,5.23
2023-03-05T21:48:24.926Z,5.13
2023-03-05T21:50:52.385Z,5.23
2023-03-05T21:53:19.663Z,5.20
2023-03-05T21:56:04.140Z,6.20
2023-03-05T21:58:32.480Z,6.30
2023-03-05T22:01:00.364Z,6.00
2023-03-05T22:03:28.134Z,5.73
2023-03-05T22:05:55.504Z,6.10
2023-03-05T22:08:22.700Z,5.87
2023-03-05T22:10:51.046Z,5.70
2023-03-05T22:13:19.995Z,5.17
2023-03-05T22:15:49.710Z,5.40
2023-03-05T22:18:22.589Z,4.97
2023-03-05T22:20:49.866Z,4.93
2023-03-05T22:23:17.672Z,5.20
2023-03-05T22:25:44.879Z,4.87
2023-03-05T22:28:13.212Z,5.77
2023-03-05T22:30:46.496Z,5.63
2023-03-05T22:33:13.638Z,4.83
2023-03-05T22:35:41.789Z,5.53
2023-03-05T22:38:12.316Z,4.97
2023-03-05T22:40:44.546Z,5.07
2023-03-05T22:43:12.268Z,5.87
2023-03-05T22:45:39.555Z,7.13
2023-03-05T22:48:07.008Z,6.17
2023-03-05T22:50:33.746Z,5.43
2023-03-05T22:53:00.550Z,5.90
2023-03-05T22:55:27.392Z,6.43
2023-03-05T22:57:54.075Z,6.63
2023-03-05T23:00:26.775Z,5.60
2023-03-05T23:02:53.985Z,6.20
2023-03-05T23:05:21.261Z,6.93
2023-03-05T23:07:48.267Z,6.67
2023-03-05T23:10:26.444Z,6.70
2023-03-05T23:12:56.614Z,6.13
2023-03-05T23:15:32.804Z,5.43
2023-03-05T23:17:59.892Z,5.30
2023-03-05T23:20:30.067Z,5.13
2023-03-05T23:22:57.043Z,5.70
2023-03-05T23:25:26.591Z,5.30
2023-03-05T23:27:53.825Z,5.57
2023-03-05T23:30:34.845Z,4.80
2023-03-05T23:33:14.560Z,3.90
2023-03-05T23:35:43.841Z,4.70
2023-03-05T23:38:14.656Z,4.30
2023-03-05T23:40:46.764Z,4.10
2023-03-05T23:43:14.291Z,4.57
2023-03-05T23:45:48.076Z,4.53
2023-03-05T23:48:17.057Z,3.83
2023-03-05T23:50:47.491Z,4.83
2023-03-05T23:53:23.042Z,4.30
2023-03-05T23:55:50.946Z,4.13
2023-03-05T23:58:20.206Z,4.77
